KMFV/MFV METAR and TAF weather

Enter ICAO airport designator
Station Type Date Time Source
KMFV METAR 2021/04/13 08:55 UTC NOAA

KMFV 130855Z AUTO 03003KT 10SM BKN035 OVC040 08/05 A2995 RMK AO2 T00780045


Station Type Date Time Source
KMFV Decoded METAR 2021/04/13 08:55 UTC NOAA

Melfa / Accomack Airport, VA, United States (KMFV) 37-39N 075-46W
Apr 13, 2021 - 04:55 AM EDT / 2021.04.13 0855 UTC
Wind: from the NNE (030 degrees) at 3 MPH (3 KT):0
Visibility: 10 mile(s):0
Sky conditions: overcast
Temperature: 46.0 F (7.8 C)
Dew Point: 40.1 F (4.5 C)
Relative Humidity: 79%
Pressure (altimeter): 29.95 in. Hg (1014 hPa)
ob: KMFV 130855Z AUTO 03003KT 10SM BKN035 OVC040 08/05 A2995 RMK AO2 T00780045
cycle: 9

Station Type Date Time Source
KMFV TAF UTC NOAA

Error!

Example: see airport list